createdAt,value
2022-08-03T00:00:26.506Z,18.28
2022-08-03T00:02:53.740Z,18.28
2022-08-03T00:05:20.964Z,18.29
2022-08-03T00:07:48.439Z,18.28
2022-08-03T00:10:16.959Z,18.29
2022-08-03T00:12:45.122Z,18.26
2022-08-03T00:15:16.450Z,18.25
2022-08-03T00:17:52.502Z,18.24
2022-08-03T00:20:20.325Z,18.22
2022-08-03T00:22:47.119Z,18.28
2022-08-03T00:25:14.003Z,18.25
2022-08-03T00:27:40.821Z,18.28
2022-08-03T00:30:10.458Z,18.21
2022-08-03T00:32:38.866Z,18.26
2022-08-03T00:35:18.236Z,18.29
2022-08-03T00:38:00.014Z,18.24
2022-08-03T00:40:26.954Z,18.34
2022-08-03T00:42:55.832Z,18.36
2022-08-03T00:45:25.752Z,18.37
2022-08-03T00:47:53.189Z,18.40
2022-08-03T00:50:23.079Z,18.39
2022-08-03T00:52:51.888Z,18.43
2022-08-03T00:55:19.280Z,18.43
2022-08-03T00:57:47.045Z,18.46
2022-08-03T01:00:18.054Z,18.49
2022-08-03T01:02:46.481Z,18.47
2022-08-03T01:05:13.939Z,18.44
2022-08-03T01:07:54.278Z,18.44
2022-08-03T01:10:28.657Z,18.38
2022-08-03T01:13:05.988Z,18.37
2022-08-03T01:15:46.571Z,18.31
2022-08-03T01:18:20.013Z,18.27
2022-08-03T01:20:53.551Z,18.26
2022-08-03T01:23:35.957Z,18.19
2022-08-03T01:26:28.157Z,18.16
2022-08-03T01:29:03.723Z,18.14
2022-08-03T01:32:59.231Z,18.12
2022-08-03T01:34:32.768Z,18.12
2022-08-03T01:37:03.138Z,18.07
2022-08-03T01:39:33.103Z,18.06
2022-08-03T01:42:06.287Z,18.10
2022-08-03T01:44:38.489Z,18.11
2022-08-03T01:47:08.740Z,18.06
2022-08-03T01:49:40.223Z,18.10
2022-08-03T01:52:08.512Z,18.09
2022-08-03T01:54:37.916Z,18.06
2022-08-03T01:57:05.316Z,18.02
2022-08-03T01:59:36.314Z,18.00
2022-08-03T02:02:28.934Z,17.98
2022-08-03T02:04:56.917Z,17.94
2022-08-03T02:07:26.314Z,17.89
2022-08-03T02:09:55.722Z,17.82
2022-08-03T02:12:25.071Z,17.79
2022-08-03T02:14:53.910Z,17.77
2022-08-03T02:17:39.533Z,17.74
2022-08-03T02:20:11.824Z,17.72
2022-08-03T02:22:41.041Z,17.69
2022-08-03T02:25:09.279Z,17.66
2022-08-03T02:27:41.825Z,17.67
2022-08-03T02:30:12.581Z,17.66
2022-08-03T02:32:42.627Z,17.58
2022-08-03T02:35:13.562Z,17.67
2022-08-03T02:37:44.976Z,17.65
2022-08-03T02:40:19.585Z,17.61
2022-08-03T02:42:48.824Z,17.59
2022-08-03T02:45:18.450Z,17.55
2022-08-03T02:47:52.193Z,17.56
2022-08-03T02:50:24.595Z,17.53
2022-08-03T02:52:52.760Z,17.54
2022-08-03T02:55:22.138Z,17.50
2022-08-03T02:57:50.335Z,17.50
2022-08-03T03:00:19.402Z,17.47
2022-08-03T03:02:57.521Z,17.47
2022-08-03T03:05:52.213Z,17.45
2022-08-03T03:08:17.744Z,17.43
2022-08-03T03:10:46.655Z,17.43
2022-08-03T03:13:15.848Z,17.54
2022-08-03T03:15:43.701Z,17.57
2022-08-03T03:18:12.033Z,17.59
2022-08-03T03:20:41.017Z,17.58
2022-08-03T03:23:09.749Z,17.57
2022-08-03T03:25:37.086Z,17.60
2022-08-03T03:28:06.403Z,17.63
2022-08-03T03:30:34.291Z,17.60
2022-08-03T03:33:01.211Z,17.63
2022-08-03T03:35:28.535Z,17.62
2022-08-03T03:37:57.178Z,17.60
2022-08-03T03:40:24.295Z,17.63
2022-08-03T03:42:51.387Z,17.60
2022-08-03T03:45:19.645Z,17.61
2022-08-03T03:47:46.693Z,17.63
2022-08-03T03:50:15.892Z,17.59
2022-08-03T03:52:42.874Z,17.64
2022-08-03T03:55:16.364Z,17.67
2022-08-03T03:57:43.362Z,17.68
2022-08-03T04:00:11.712Z,17.69
2022-08-03T04:02:39.318Z,17.71
2022-08-03T04:05:27.406Z,17.67
2022-08-03T04:08:17.793Z,17.71
2022-08-03T04:11:00.131Z,17.74
2022-08-03T04:13:31.044Z,17.78
2022-08-03T04:15:59.301Z,17.77
2022-08-03T04:18:29.769Z,17.76
2022-08-03T04:21:00.893Z,17.76
2022-08-03T04:23:29.557Z,17.76
2022-08-03T04:25:59.398Z,17.75
2022-08-03T04:28:30.386Z,17.73
2022-08-03T04:31:00.113Z,17.77
2022-08-03T04:33:30.307Z,17.72
2022-08-03T04:36:01.604Z,17.72
2022-08-03T04:38:31.901Z,17.77
2022-08-03T04:41:01.975Z,17.80
2022-08-03T04:43:31.785Z,17.80
2022-08-03T04:46:00.224Z,17.80
2022-08-03T04:48:28.112Z,17.85
2022-08-03T04:50:55.180Z,17.88
2022-08-03T04:53:22.560Z,17.91
2022-08-03T04:55:50.378Z,17.92
2022-08-03T04:58:18.627Z,17.97
2022-08-03T05:00:45.763Z,17.98
2022-08-03T05:03:20.536Z,17.99
2022-08-03T05:05:51.573Z,18.00
2022-08-03T05:08:20.328Z,18.04
2022-08-03T05:10:49.692Z,18.06
2022-08-03T05:13:18.004Z,18.08
2022-08-03T05:15:44.930Z,18.08
2022-08-03T05:18:14.091Z,18.08
2022-08-03T05:20:41.303Z,18.14
2022-08-03T05:23:08.152Z,18.14
2022-08-03T05:25:35.073Z,18.24
2022-08-03T05:28:02.064Z,18.28
2022-08-03T05:30:34.089Z,18.28
2022-08-03T05:33:02.740Z,18.35
2022-08-03T05:36:00.745Z,18.40
2022-08-03T05:38:23.897Z,18.43
2022-08-03T05:41:20.182Z,18.46
2022-08-03T05:43:48.188Z,18.51
2022-08-03T05:46:16.444Z,18.56
2022-08-03T05:48:43.685Z,18.64
2022-08-03T05:51:14.092Z,18.69
2022-08-03T05:53:41.915Z,18.75
2022-08-03T05:56:14.374Z,18.79
2022-08-03T05:58:43.100Z,18.84
2022-08-03T06:01:09.970Z,18.95
2022-08-03T06:03:38.263Z,19.03
2022-08-03T06:06:05.195Z,19.05
2022-08-03T06:08:32.108Z,19.17
2022-08-03T06:10:59.012Z,19.22
2022-08-03T06:13:25.857Z,19.26
2022-08-03T06:15:52.663Z,19.26
2022-08-03T06:18:19.575Z,19.33
2022-08-03T06:20:49.500Z,19.47
2022-08-03T06:23:18.013Z,19.64
2022-08-03T06:25:45.784Z,19.72
2022-08-03T06:28:42.431Z,19.87
2022-08-03T06:31:01.362Z,20.04
2022-08-03T06:33:48.359Z,20.10
2022-08-03T06:36:16.291Z,20.18
2022-08-03T06:38:43.165Z,20.25
2022-08-03T06:41:10.274Z,20.39
2022-08-03T06:43:38.103Z,20.50
2022-08-03T06:46:24.533Z,20.59
2022-08-03T06:48:53.026Z,20.68
2022-08-03T06:51:21.361Z,20.70
2022-08-03T06:54:08.228Z,20.77
2022-08-03T06:56:35.065Z,20.85
2022-08-03T06:59:01.939Z,20.74
2022-08-03T07:01:28.966Z,20.68
2022-08-03T07:03:56.443Z,20.70
2022-08-03T07:06:24.835Z,20.86
2022-08-03T07:08:54.487Z,21.06
2022-08-03T07:11:23.490Z,21.16
2022-08-03T07:13:50.394Z,21.23
2022-08-03T07:16:17.204Z,21.16
2022-08-03T07:18:44.613Z,21.13
2022-08-03T07:21:12.796Z,21.25
2022-08-03T07:23:41.220Z,21.42
2022-08-03T07:26:08.048Z,21.75
2022-08-03T07:28:35.137Z,21.82
2022-08-03T07:31:01.938Z,21.73
2022-08-03T07:33:28.834Z,21.60
2022-08-03T07:35:55.642Z,21.56
2022-08-03T07:38:22.522Z,21.62
2022-08-03T07:40:50.867Z,21.53
2022-08-03T07:43:17.842Z,21.70
2022-08-03T07:45:44.809Z,21.89
2022-08-03T07:48:12.621Z,22.19
2022-08-03T07:50:39.777Z,22.42
2022-08-03T07:53:06.678Z,22.67
2022-08-03T07:55:33.761Z,22.72
2022-08-03T07:58:09.427Z,22.77
2022-08-03T08:00:36.773Z,23.59
2022-08-03T08:03:04.865Z,23.52
2022-08-03T08:05:31.981Z,23.40
2022-08-03T08:07:59.012Z,23.20
2022-08-03T08:10:26.055Z,23.64
2022-08-03T08:12:53.508Z,23.90
2022-08-03T08:15:21.989Z,24.45
2022-08-03T08:17:50.437Z,25.09
2022-08-03T08:20:27.070Z,25.61
2022-08-03T08:22:57.132Z,25.96
2022-08-03T08:25:25.171Z,25.76
2022-08-03T08:28:29.371Z,26.21
2022-08-03T08:30:41.034Z,26.93
2022-08-03T08:33:08.684Z,27.00
2022-08-03T08:35:48.986Z,27.07
2022-08-03T08:38:15.780Z,26.84
2022-08-03T08:40:42.924Z,26.58
2022-08-03T08:43:10.026Z,26.03
2022-08-03T08:45:37.736Z,25.44
2022-08-03T08:48:08.435Z,25.60
2022-08-03T08:50:38.849Z,26.07
2022-08-03T08:53:10.724Z,26.40
2022-08-03T08:55:58.378Z,26.40
2022-08-03T08:58:29.780Z,26.59
2022-08-03T09:00:57.178Z,26.69
2022-08-03T09:03:29.658Z,26.81
2022-08-03T09:05:59.777Z,27.12
2022-08-03T09:08:26.700Z,27.47
2022-08-03T09:10:53.530Z,26.90
2022-08-03T09:13:20.409Z,27.12
2022-08-03T09:16:00.682Z,26.76
2022-08-03T09:18:32.192Z,25.99
2022-08-03T09:21:30.056Z,25.64
2022-08-03T09:24:03.928Z,25.38
2022-08-03T09:26:34.330Z,24.86
2022-08-03T09:29:05.923Z,24.78
2022-08-03T09:31:35.211Z,25.12
2022-08-03T09:34:05.534Z,26.09
2022-08-03T09:36:40.851Z,26.79
2022-08-03T09:39:11.196Z,27.64
2022-08-03T09:41:39.537Z,28.10
2022-08-03T09:44:06.671Z,27.80
2022-08-03T09:46:49.952Z,27.74
2022-08-03T09:49:18.706Z,28.10
2022-08-03T09:52:31.919Z,27.82
2022-08-03T09:54:33.126Z,26.20
2022-08-03T09:57:00.200Z,26.35
2022-08-03T09:59:28.674Z,26.83
2022-08-03T10:01:56.300Z,28.31
2022-08-03T10:04:27.660Z,28.43
2022-08-03T10:07:06.393Z,27.19
2022-08-03T10:09:33.327Z,26.55
2022-08-03T10:12:07.982Z,25.82
2022-08-03T10:14:37.818Z,27.08
2022-08-03T10:17:05.384Z,27.24
2022-08-03T10:19:35.278Z,28.21
2022-08-03T10:22:04.957Z,28.44
2022-08-03T10:24:35.425Z,28.19
2022-08-03T10:27:04.485Z,27.90
2022-08-03T10:29:37.171Z,28.75
2022-08-03T10:32:08.032Z,29.55
2022-08-03T10:34:44.418Z,30.24
2022-08-03T10:37:12.857Z,30.43
2022-08-03T10:39:53.460Z,30.54
2022-08-03T10:42:27.156Z,30.31
2022-08-03T10:45:03.305Z,29.98
2022-08-03T10:47:31.463Z,29.14
2022-08-03T10:50:01.195Z,29.88
2022-08-03T10:52:31.731Z,30.38
2022-08-03T10:55:22.023Z,30.31
2022-08-03T10:57:56.070Z,30.12
2022-08-03T11:00:27.461Z,30.72
2022-08-03T11:03:11.290Z,30.79
2022-08-03T11:05:41.921Z,30.16
2022-08-03T11:08:19.713Z,30.15
2022-08-03T11:10:46.818Z,30.01
2022-08-03T11:13:16.888Z,30.12
2022-08-03T11:15:46.675Z,30.34
2022-08-03T11:18:14.255Z,30.32
2022-08-03T11:20:47.776Z,30.41
2022-08-03T11:23:15.767Z,30.52
2022-08-03T11:26:16.143Z,30.56
2022-08-03T11:28:44.841Z,30.68
2022-08-03T11:31:49.463Z,31.44
2022-08-03T11:34:17.576Z,31.58
2022-08-03T11:37:26.379Z,31.81
2022-08-03T11:39:57.039Z,31.54
2022-08-03T11:42:45.249Z,31.00
2022-08-03T11:45:12.717Z,31.04
2022-08-03T11:47:51.161Z,30.41
2022-08-03T11:50:20.093Z,30.16
2022-08-03T11:52:49.196Z,30.14
2022-08-03T11:55:22.013Z,29.86
2022-08-03T11:59:18.813Z,29.54
2022-08-03T12:00:36.668Z,29.17
2022-08-03T12:03:06.505Z,29.62
2022-08-03T12:05:42.086Z,30.27
2022-08-03T12:08:31.346Z,29.66
2022-08-03T12:11:00.435Z,30.02
2022-08-03T12:14:35.672Z,30.18
2022-08-03T12:16:24.392Z,31.02
2022-08-03T12:18:55.594Z,30.97
2022-08-03T12:21:24.764Z,31.00
2022-08-03T12:23:56.914Z,31.21
2022-08-03T12:26:23.768Z,31.04
2022-08-03T12:28:50.696Z,30.62
2022-08-03T12:31:17.712Z,30.69
2022-08-03T12:33:59.981Z,31.11
2022-08-03T12:36:29.806Z,30.97
2022-08-03T12:39:00.433Z,30.44
2022-08-03T12:41:29.680Z,30.72
2022-08-03T12:43:56.827Z,30.49
2022-08-03T12:46:29.207Z,30.09
2022-08-03T12:49:04.890Z,29.64
2022-08-03T12:51:33.707Z,29.17
2022-08-03T12:54:02.106Z,29.20
2022-08-03T12:56:29.155Z,30.13
2022-08-03T12:58:56.284Z,29.71
2022-08-03T13:01:24.559Z,30.49
2022-08-03T13:03:53.847Z,30.28
2022-08-03T13:06:22.695Z,30.14
2022-08-03T13:08:51.327Z,29.74
2022-08-03T13:11:55.724Z,30.19
2022-08-03T13:14:16.692Z,29.96
2022-08-03T13:16:47.474Z,30.28
2022-08-03T13:19:15.486Z,30.02
2022-08-03T13:22:02.195Z,29.65
2022-08-03T13:24:30.447Z,29.02
2022-08-03T13:27:00.099Z,28.98
2022-08-03T13:29:26.931Z,29.31
2022-08-03T13:31:54.059Z,29.21
2022-08-03T13:34:23.465Z,29.14
2022-08-03T13:37:08.293Z,29.38
2022-08-03T13:39:59.801Z,29.21
2022-08-03T13:42:24.636Z,29.02
2022-08-03T13:44:51.491Z,29.41
2022-08-03T13:47:20.140Z,29.70
2022-08-03T13:50:00.049Z,29.43
2022-08-03T13:52:29.529Z,28.30
2022-08-03T13:54:56.708Z,28.69
2022-08-03T13:58:06.450Z,28.73
2022-08-03T14:00:12.676Z,28.74
2022-08-03T14:02:44.317Z,29.07
2022-08-03T14:05:11.369Z,28.79
2022-08-03T14:07:38.197Z,28.58
2022-08-03T14:10:05.843Z,28.39
2022-08-03T14:12:35.212Z,28.32
2022-08-03T14:15:02.064Z,28.54
2022-08-03T14:17:42.015Z,28.89
2022-08-03T14:20:36.215Z,29.19
2022-08-03T14:23:02.978Z,29.66
2022-08-03T14:25:31.338Z,29.36
2022-08-03T14:28:11.411Z,29.57
2022-08-03T14:30:38.225Z,29.30
2022-08-03T14:33:05.088Z,29.41
2022-08-03T14:35:31.977Z,29.35
2022-08-03T14:37:58.823Z,29.40
2022-08-03T14:40:25.666Z,29.23
2022-08-03T14:42:52.513Z,29.09
2022-08-03T14:45:20.795Z,29.11
2022-08-03T14:50:30.726Z,29.38
2022-08-03T14:50:41.930Z,28.78
2022-08-03T14:53:11.258Z,28.58
2022-08-03T14:55:38.966Z,28.68
2022-08-03T14:58:20.599Z,28.48
2022-08-03T15:00:50.227Z,28.13
2022-08-03T15:03:20.623Z,28.70
2022-08-03T15:05:47.775Z,28.63
2022-08-03T15:08:14.630Z,28.86
2022-08-03T15:10:44.887Z,28.53
2022-08-03T15:13:12.709Z,28.30
2022-08-03T15:15:39.727Z,28.38
2022-08-03T15:18:08.620Z,28.60
2022-08-03T15:20:44.462Z,28.54
2022-08-03T15:23:13.040Z,28.64
2022-08-03T15:26:29.396Z,29.14
2022-08-03T15:28:26.846Z,28.94
2022-08-03T15:30:53.872Z,28.96
2022-08-03T15:33:22.147Z,29.56
2022-08-03T15:35:49.942Z,29.71
2022-08-03T15:38:16.957Z,30.10
2022-08-03T15:40:43.790Z,30.00
2022-08-03T15:43:10.858Z,31.34
2022-08-03T15:45:37.758Z,31.88
2022-08-03T15:48:05.334Z,31.92
2022-08-03T15:50:33.562Z,31.47
2022-08-03T15:53:00.607Z,31.70
2022-08-03T15:55:27.930Z,32.30
2022-08-03T15:59:10.363Z,32.07
2022-08-03T16:00:42.872Z,31.85
2022-08-03T16:03:09.958Z,32.60
2022-08-03T16:05:38.509Z,30.93
2022-08-03T16:08:09.062Z,29.70
2022-08-03T16:10:39.757Z,28.95
2022-08-03T16:13:06.793Z,27.56
2022-08-03T16:15:34.003Z,26.73
2022-08-03T16:18:05.780Z,26.33
2022-08-03T16:20:35.008Z,26.01
2022-08-03T16:23:10.319Z,25.84
2022-08-03T16:25:38.663Z,26.16
2022-08-03T16:28:07.820Z,26.26
2022-08-03T16:30:40.727Z,26.79
2022-08-03T16:33:07.643Z,26.28
2022-08-03T16:35:34.577Z,25.79
2022-08-03T16:38:02.836Z,25.46
2022-08-03T16:40:32.891Z,25.25
2022-08-03T16:42:59.772Z,25.08
2022-08-03T16:45:26.675Z,24.89
2022-08-03T16:48:01.650Z,24.88
2022-08-03T16:50:32.787Z,24.82
2022-08-03T16:52:59.743Z,24.73
2022-08-03T16:55:43.217Z,24.71
2022-08-03T16:58:17.941Z,24.67
2022-08-03T17:00:51.483Z,24.56
2022-08-03T17:03:24.099Z,24.60
2022-08-03T17:05:51.332Z,24.60
2022-08-03T17:08:26.462Z,24.54
2022-08-03T17:10:55.084Z,24.42
2022-08-03T17:13:39.441Z,24.45
2022-08-03T17:16:10.524Z,24.38
2022-08-03T17:18:42.181Z,24.38
2022-08-03T17:21:16.105Z,24.37
2022-08-03T17:23:52.142Z,24.34
2022-08-03T17:26:21.963Z,24.27
2022-08-03T17:28:58.019Z,24.21
2022-08-03T17:31:31.741Z,24.22
2022-08-03T17:34:01.369Z,24.16
2022-08-03T17:36:47.694Z,24.10
2022-08-03T17:39:16.605Z,24.04
2022-08-03T17:41:50.064Z,23.99
2022-08-03T17:44:35.234Z,23.95
2022-08-03T17:47:06.639Z,23.97
2022-08-03T17:49:40.036Z,23.95
2022-08-03T17:52:17.556Z,23.86
2022-08-03T17:55:55.496Z,23.88
2022-08-03T17:58:02.721Z,23.87
2022-08-03T18:00:52.137Z,23.90
2022-08-03T18:03:24.972Z,23.84
2022-08-03T18:06:11.859Z,23.72
2022-08-03T18:08:54.699Z,23.54
2022-08-03T18:11:35.379Z,23.35
2022-08-03T18:14:16.463Z,23.34
2022-08-03T18:16:50.109Z,23.25
2022-08-03T18:19:17.757Z,23.20
2022-08-03T18:22:03.001Z,23.21
2022-08-03T18:24:30.801Z,23.13
2022-08-03T18:26:59.441Z,23.03
2022-08-03T18:29:27.838Z,22.84
2022-08-03T18:32:03.069Z,22.72
2022-08-03T18:34:34.607Z,22.72
2022-08-03T18:37:07.507Z,22.67
2022-08-03T18:39:52.787Z,22.63
2022-08-03T18:42:25.904Z,22.60
2022-08-03T18:44:56.181Z,22.53
2022-08-03T18:47:52.442Z,22.47
2022-08-03T18:50:28.473Z,22.43
2022-08-03T18:53:16.195Z,22.17
2022-08-03T18:56:01.618Z,21.91
2022-08-03T18:58:35.467Z,21.65
2022-08-03T19:01:47.184Z,21.48
2022-08-03T19:04:09.038Z,21.25
2022-08-03T19:06:42.148Z,21.05
2022-08-03T19:09:17.398Z,20.93
2022-08-03T19:12:13.955Z,20.81
2022-08-03T19:14:41.568Z,20.64
2022-08-03T19:17:11.385Z,20.54
2022-08-03T19:19:44.114Z,20.43
2022-08-03T19:22:16.374Z,20.30
2022-08-03T19:24:45.677Z,20.19
2022-08-03T19:27:12.829Z,20.21
2022-08-03T19:30:00.440Z,20.29
2022-08-03T19:32:30.471Z,20.16
2022-08-03T19:35:00.651Z,20.04
2022-08-03T19:37:38.068Z,19.95
2022-08-03T19:40:10.943Z,19.99
2022-08-03T19:42:44.678Z,20.03
2022-08-03T19:45:20.947Z,20.03
2022-08-03T19:47:52.188Z,19.97
2022-08-03T19:50:20.890Z,20.13
2022-08-03T19:52:51.453Z,20.34
2022-08-03T19:55:18.797Z,20.47
2022-08-03T19:57:49.029Z,20.40
2022-08-03T20:00:19.683Z,20.33
2022-08-03T20:02:47.605Z,20.57
2022-08-03T20:05:20.086Z,20.56
2022-08-03T20:07:48.441Z,20.52
2022-08-03T20:10:16.993Z,20.43
2022-08-03T20:12:44.834Z,20.34
2022-08-03T20:15:12.183Z,20.27
2022-08-03T20:17:54.498Z,20.30
2022-08-03T20:20:27.752Z,20.27
2022-08-03T20:22:57.627Z,20.25
2022-08-03T20:28:29.278Z,20.11
2022-08-03T20:30:56.942Z,20.07
2022-08-03T20:33:27.986Z,20.00
2022-08-03T20:36:12.246Z,19.98
2022-08-03T20:38:46.879Z,19.91
2022-08-03T20:41:14.465Z,19.84
2022-08-03T20:43:42.027Z,19.75
2022-08-03T20:46:33.772Z,19.69
2022-08-03T20:48:58.951Z,19.64
2022-08-03T20:51:50.603Z,19.63
2022-08-03T20:54:22.991Z,19.58
2022-08-03T20:56:57.793Z,19.33
2022-08-03T20:59:29.890Z,19.15
2022-08-03T21:02:00.564Z,19.09
2022-08-03T21:04:28.766Z,19.13
2022-08-03T21:07:02.522Z,19.14
2022-08-03T21:09:42.289Z,19.21
2022-08-03T21:12:18.958Z,18.94
2022-08-03T21:13:06.786Z,20.17
2022-08-03T21:14:52.337Z,18.94
2022-08-03T21:17:39.202Z,19.07
2022-08-03T21:20:09.184Z,19.14
2022-08-03T21:22:39.243Z,19.20
2022-08-03T21:25:09.378Z,19.24
2022-08-03T21:27:37.467Z,19.29
2022-08-03T21:30:07.933Z,19.32
2022-08-03T21:32:36.519Z,19.36
2022-08-03T21:35:04.081Z,19.45
2022-08-03T21:37:30.895Z,19.30
2022-08-03T21:39:59.151Z,19.29
2022-08-03T21:42:26.130Z,19.15
2022-08-03T21:44:53.683Z,18.98
2022-08-03T21:47:22.964Z,18.96
2022-08-03T21:50:06.590Z,18.96
2022-08-03T21:52:41.256Z,18.88
2022-08-03T21:55:20.293Z,18.86
2022-08-03T21:57:53.514Z,18.84
2022-08-03T22:00:23.078Z,18.85
2022-08-03T22:02:54.771Z,18.89
2022-08-03T22:05:28.156Z,18.97
2022-08-03T22:08:09.491Z,19.02
2022-08-03T22:10:38.247Z,19.06
2022-08-03T22:13:05.098Z,19.08
2022-08-03T22:15:32.912Z,19.07
2022-08-03T22:18:03.674Z,19.14
2022-08-03T22:20:31.086Z,19.18
2022-08-03T22:23:01.983Z,19.23
2022-08-03T22:25:30.988Z,19.23
2022-08-03T22:28:01.833Z,19.22
2022-08-03T22:30:29.309Z,19.23
2022-08-03T22:32:57.700Z,19.26
2022-08-03T22:35:26.719Z,19.38
2022-08-03T22:37:55.406Z,19.40
2022-08-03T22:40:22.498Z,19.40
2022-08-03T22:42:51.344Z,19.43
2022-08-03T22:46:07.189Z,19.43
2022-08-03T22:48:08.590Z,19.43
2022-08-03T22:50:36.000Z,19.34
2022-08-03T22:53:03.437Z,19.35
2022-08-03T22:55:31.068Z,19.36
2022-08-03T22:57:57.898Z,19.30
2022-08-03T23:00:26.256Z,19.30
2022-08-03T23:02:56.913Z,19.39
2022-08-03T23:06:01.070Z,19.36
2022-08-03T23:08:15.270Z,19.24
2022-08-03T23:10:46.862Z,19.21
2022-08-03T23:13:16.485Z,19.23
2022-08-03T23:15:50.973Z,19.31
2022-08-03T23:18:21.452Z,19.41
2022-08-03T23:20:51.702Z,19.47
2022-08-03T23:23:19.921Z,19.44
2022-08-03T23:25:49.520Z,19.44
2022-08-03T23:28:17.400Z,19.45
2022-08-03T23:30:47.489Z,19.42
2022-08-03T23:33:16.461Z,19.30
2022-08-03T23:36:28.145Z,19.09
2022-08-03T23:38:46.025Z,18.79
2022-08-03T23:41:14.922Z,18.65
2022-08-03T23:43:52.127Z,18.75
2022-08-03T23:46:24.003Z,18.96
2022-08-03T23:48:51.470Z,18.96
2022-08-03T23:51:33.348Z,19.00
2022-08-03T23:54:03.877Z,18.99
2022-08-03T23:56:37.450Z,19.01
2022-08-03T23:59:12.978Z,18.99
